ALH weather

Albany Airport
Albany, Western Australia, Australia

Public forecast

Using degrees Celsius for public forecast. Weather courtesy of forecast.io.

Current aviation weather report (METAR) for Albany Airport

Retrieved 2019/10/23 03:30 UTC (4 minutes ago):

YABA 230330Z AUTO 24012KT 4500 // SCT008 BKN011 BKN028 16/14 Q1013

Closest aviation forecast (TAF) to Albany Airport

Closest forecast is Perth Jandakot Airport, 196.2 nm (363.4 km) NNW. Retrieved 2019-10-23 00:00 UTC (4 hours ago):

TAF YPJT 222244Z 2300/2318 25005KT 9999 SCT020 FM230100 27012KT 9999 SCT030 FM230600 27014KT 9999 -SHRA FEW015 BKN030 FM230900 21012KT 9999 -SHRA BKN030 FM231300 21011KT 9999 NSW SCT030 INTER 2307/2311 4000 SHRA BKN010